sensor_id;sensor_type;location;lat;lon;timestamp;pressure;altitude;pressure_sealevel;temperature;humidity
30081;BME280;16902;50.816;12.828;2023-04-24T00:02:15;96575.81;;;11.20;100.00
30081;BME280;16902;50.816;12.828;2023-04-24T00:07:17;96576.03;;;11.19;100.00
30081;BME280;16902;50.816;12.828;2023-04-24T00:12:18;96569.81;;;11.20;100.00
30081;BME280;16902;50.816;12.828;2023-04-24T00:17:20;96584.25;;;11.16;100.00
30081;BME280;16902;50.816;12.828;2023-04-24T00:22:22;96572.25;;;11.15;100.00
30081;BME280;16902;50.816;12.828;2023-04-24T00:27:24;96578.63;;;11.19;100.00
30081;BME280;16902;50.816;12.828;2023-04-24T00:32:25;96577.84;;;11.18;100.00
30081;BME280;16902;50.816;12.828;2023-04-24T00:37:29;96573.66;;;11.17;100.00
30081;BME280;16902;50.816;12.828;2023-04-24T00:42:31;96570.06;;;11.12;100.00
30081;BME280;16902;50.816;12.828;2023-04-24T00:47:33;96568.16;;;11.00;100.00
30081;BME280;16902;50.816;12.828;2023-04-24T00:52:35;96561.19;;;10.94;100.00
30081;BME280;16902;50.816;12.828;2023-04-24T00:57:38;96569.25;;;10.86;100.00
30081;BME280;16902;50.816;12.828;2023-04-24T01:02:40;96569.88;;;10.81;100.00
30081;BME280;16902;50.816;12.828;2023-04-24T01:07:47;96564.09;;;10.73;100.00
30081;BME280;16902;50.816;12.828;2023-04-24T01:12:51;96564.16;;;10.66;100.00
30081;BME280;16902;50.816;12.828;2023-04-24T01:17:53;96565.97;;;10.66;100.00
30081;BME280;16902;50.816;12.828;2023-04-24T01:22:55;96553.19;;;10.64;100.00
30081;BME280;16902;50.816;12.828;2023-04-24T01:27:58;96549.78;;;10.64;100.00
30081;BME280;16902;50.816;12.828;2023-04-24T01:33:00;96553.97;;;10.65;100.00
30081;BME280;16902;50.816;12.828;2023-04-24T01:38:02;96556.34;;;10.66;100.00
30081;BME280;16902;50.816;12.828;2023-04-24T01:43:06;96555.16;;;10.69;100.00
30081;BME280;16902;50.816;12.828;2023-04-24T01:48:08;96554.53;;;10.67;100.00
30081;BME280;16902;50.816;12.828;2023-04-24T01:53:10;96572.75;;;10.67;100.00
30081;BME280;16902;50.816;12.828;2023-04-24T01:58:11;96565.19;;;10.65;100.00
30081;BME280;16902;50.816;12.828;2023-04-24T02:03:13;96567.72;;;10.72;100.00
30081;BME280;16902;50.816;12.828;2023-04-24T02:08:15;96577.34;;;10.71;100.00
30081;BME280;16902;50.816;12.828;2023-04-24T02:13:17;96577.59;;;10.63;100.00
30081;BME280;16902;50.816;12.828;2023-04-24T02:18:18;96566.03;;;10.59;100.00
30081;BME280;16902;50.816;12.828;2023-04-24T02:23:20;96566.63;;;10.54;100.00
30081;BME280;16902;50.816;12.828;2023-04-24T02:28:22;96567.63;;;10.53;100.00
30081;BME280;16902;50.816;12.828;2023-04-24T02:33:24;96558.66;;;10.49;100.00
30081;BME280;16902;50.816;12.828;2023-04-24T02:38:26;96558.09;;;10.41;100.00
30081;BME280;16902;50.816;12.828;2023-04-24T02:43:28;96565.91;;;10.34;100.00
30081;BME280;16902;50.816;12.828;2023-04-24T02:48:29;96563.94;;;10.29;100.00
30081;BME280;16902;50.816;12.828;2023-04-24T02:53:31;96558.75;;;10.23;100.00
30081;BME280;16902;50.816;12.828;2023-04-24T02:58:33;96548.16;;;10.18;100.00
30081;BME280;16902;50.816;12.828;2023-04-24T03:03:35;96560.19;;;10.12;100.00
30081;BME280;16902;50.816;12.828;2023-04-24T03:08:37;96553.00;;;10.08;100.00
30081;BME280;16902;50.816;12.828;2023-04-24T03:13:39;96562.63;;;10.07;100.00
30081;BME280;16902;50.816;12.828;2023-04-24T03:18:41;96564.63;;;9.98;100.00
30081;BME280;16902;50.816;12.828;2023-04-24T03:23:43;96563.44;;;9.94;100.00
30081;BME280;16902;50.816;12.828;2023-04-24T03:28:45;96559.66;;;9.90;100.00
30081;BME280;16902;50.816;12.828;2023-04-24T03:33:47;96548.63;;;9.95;100.00
30081;BME280;16902;50.816;12.828;2023-04-24T03:38:48;96551.25;;;9.95;100.00
30081;BME280;16902;50.816;12.828;2023-04-24T03:43:57;96552.06;;;9.89;100.00
30081;BME280;16902;50.816;12.828;2023-04-24T03:48:59;96559.25;;;9.93;100.00
30081;BME280;16902;50.816;12.828;2023-04-24T03:54:06;96562.66;;;9.94;100.00
30081;BME280;16902;50.816;12.828;2023-04-24T03:59:11;96563.88;;;9.91;100.00
30081;BME280;16902;50.816;12.828;2023-04-24T04:04:14;96567.28;;;9.78;100.00
30081;BME280;16902;50.816;12.828;2023-04-24T04:09:17;96551.50;;;9.80;100.00
30081;BME280;16902;50.816;12.828;2023-04-24T04:14:20;96559.69;;;9.84;100.00
30081;BME280;16902;50.816;12.828;2023-04-24T04:19:22;96557.66;;;9.92;100.00
30081;BME280;16902;50.816;12.828;2023-04-24T04:24:25;96560.22;;;9.99;100.00
30081;BME280;16902;50.816;12.828;2023-04-24T04:29:28;96564.25;;;10.01;100.00
30081;BME280;16902;50.816;12.828;2023-04-24T04:34:30;96556.44;;;10.01;100.00
30081;BME280;16902;50.816;12.828;2023-04-24T04:39:33;96565.19;;;10.14;100.00
30081;BME280;16902;50.816;12.828;2023-04-24T04:44:41;96553.53;;;10.23;100.00
30081;BME280;16902;50.816;12.828;2023-04-24T04:49:49;96543.53;;;10.33;100.00
30081;BME280;16902;50.816;12.828;2023-04-24T04:54:56;96552.28;;;10.39;100.00
30081;BME280;16902;50.816;12.828;2023-04-24T05:00:07;96567.66;;;10.47;100.00
30081;BME280;16902;50.816;12.828;2023-04-24T05:05:20;96565.81;;;10.61;100.00
30081;BME280;16902;50.816;12.828;2023-04-24T05:10:23;96573.44;;;10.87;100.00
30081;BME280;16902;50.816;12.828;2023-04-24T05:15:28;96578.00;;;10.98;100.00
30081;BME280;16902;50.816;12.828;2023-04-24T05:20:34;96584.38;;;11.02;100.00
30081;BME280;16902;50.816;12.828;2023-04-24T05:25:36;96591.81;;;10.99;100.00
30081;BME280;16902;50.816;12.828;2023-04-24T05:30:43;96598.22;;;10.96;100.00
30081;BME280;16902;50.816;12.828;2023-04-24T05:35:48;96603.25;;;10.98;100.00
30081;BME280;16902;50.816;12.828;2023-04-24T05:40:52;96597.50;;;11.14;100.00
30081;BME280;16902;50.816;12.828;2023-04-24T05:45:54;96598.31;;;11.40;100.00
30081;BME280;16902;50.816;12.828;2023-04-24T05:50:57;96590.13;;;11.61;100.00
30081;BME280;16902;50.816;12.828;2023-04-24T05:55:59;96596.00;;;11.75;100.00
30081;BME280;16902;50.816;12.828;2023-04-24T06:01:01;96599.41;;;11.75;100.00
30081;BME280;16902;50.816;12.828;2023-04-24T06:06:06;96599.81;;;11.72;100.00
30081;BME280;16902;50.816;12.828;2023-04-24T06:11:08;96601.03;;;11.70;100.00
30081;BME280;16902;50.816;12.828;2023-04-24T06:16:11;96600.41;;;11.74;100.00
30081;BME280;16902;50.816;12.828;2023-04-24T06:21:17;96603.41;;;11.53;100.00
30081;BME280;16902;50.816;12.828;2023-04-24T06:26:19;96603.63;;;11.51;100.00
30081;BME280;16902;50.816;12.828;2023-04-24T06:31:21;96599.06;;;11.47;100.00
30081;BME280;16902;50.816;12.828;2023-04-24T06:36:23;96595.53;;;11.59;100.00
30081;BME280;16902;50.816;12.828;2023-04-24T06:41:24;96588.88;;;11.64;100.00
30081;BME280;16902;50.816;12.828;2023-04-24T06:46:26;96583.13;;;11.80;100.00
30081;BME280;16902;50.816;12.828;2023-04-24T06:51:29;96587.88;;;11.90;100.00
30081;BME280;16902;50.816;12.828;2023-04-24T06:56:32;96585.78;;;11.73;100.00
30081;BME280;16902;50.816;12.828;2023-04-24T07:01:36;96584.19;;;11.72;100.00
30081;BME280;16902;50.816;12.828;2023-04-24T07:06:38;96591.72;;;11.80;100.00
30081;BME280;16902;50.816;12.828;2023-04-24T07:11:45;96596.16;;;11.80;100.00
30081;BME280;16902;50.816;12.828;2023-04-24T07:16:48;96611.66;;;11.75;100.00
30081;BME280;16902;50.816;12.828;2023-04-24T07:21:52;96607.81;;;11.77;100.00
30081;BME280;16902;50.816;12.828;2023-04-24T07:26:55;96615.31;;;11.92;100.00
30081;BME280;16902;50.816;12.828;2023-04-24T07:32:01;96598.06;;;11.91;100.00
30081;BME280;16902;50.816;12.828;2023-04-24T07:37:05;96601.03;;;12.13;100.00
30081;BME280;16902;50.816;12.828;2023-04-24T07:42:06;96604.81;;;12.17;100.00
30081;BME280;16902;50.816;12.828;2023-04-24T07:47:08;96606.38;;;12.37;100.00
30081;BME280;16902;50.816;12.828;2023-04-24T07:52:10;96615.75;;;12.44;100.00
30081;BME280;16902;50.816;12.828;2023-04-24T07:57:11;96614.03;;;12.68;100.00
30081;BME280;16902;50.816;12.828;2023-04-24T08:02:13;96619.13;;;12.63;100.00
30081;BME280;16902;50.816;12.828;2023-04-24T08:07:16;96621.75;;;12.93;100.00
30081;BME280;16902;50.816;12.828;2023-04-24T08:12:18;96633.88;;;12.88;100.00
30081;BME280;16902;50.816;12.828;2023-04-24T08:17:20;96634.56;;;12.95;100.00
30081;BME280;16902;50.816;12.828;2023-04-24T08:22:21;96641.59;;;12.82;100.00
30081;BME280;16902;50.816;12.828;2023-04-24T08:27:23;96632.63;;;12.90;100.00
30081;BME280;16902;50.816;12.828;2023-04-24T08:32:25;96636.31;;;13.01;100.00
30081;BME280;16902;50.816;12.828;2023-04-24T08:37:30;96629.34;;;12.95;100.00
30081;BME280;16902;50.816;12.828;2023-04-24T08:42:34;96632.31;;;13.28;100.00
30081;BME280;16902;50.816;12.828;2023-04-24T08:47:41;96634.66;;;13.60;100.00
30081;BME280;16902;50.816;12.828;2023-04-24T08:52:43;96637.59;;;13.40;100.00
30081;BME280;16902;50.816;12.828;2023-04-24T08:57:46;96635.97;;;13.39;100.00
30081;BME280;16902;50.816;12.828;2023-04-24T09:02:53;96637.63;;;13.63;100.00
30081;BME280;16902;50.816;12.828;2023-04-24T09:07:56;96625.41;;;13.46;100.00
30081;BME280;16902;50.816;12.828;2023-04-24T09:12:58;96634.09;;;13.70;100.00
30081;BME280;16902;50.816;12.828;2023-04-24T09:18:03;96629.50;;;13.42;100.00
30081;BME280;16902;50.816;12.828;2023-04-24T09:23:07;96634.56;;;12.95;100.00
30081;BME280;16902;50.816;12.828;2023-04-24T09:28:11;96632.72;;;12.83;100.00
30081;BME280;16902;50.816;12.828;2023-04-24T09:33:14;96631.81;;;13.20;100.00
30081;BME280;16902;50.816;12.828;2023-04-24T09:38:17;96636.91;;;13.56;100.00
30081;BME280;16902;50.816;12.828;2023-04-24T09:43:19;96642.25;;;13.20;100.00
30081;BME280;16902;50.816;12.828;2023-04-24T09:48:29;96650.31;;;13.48;100.00
30081;BME280;16902;50.816;12.828;2023-04-24T09:53:31;96657.63;;;13.81;100.00
30081;BME280;16902;50.816;12.828;2023-04-24T09:58:36;96665.47;;;14.52;100.00
30081;BME280;16902;50.816;12.828;2023-04-24T10:03:42;96657.63;;;14.80;100.00
30081;BME280;16902;50.816;12.828;2023-04-24T10:08:45;96644.19;;;14.36;100.00
30081;BME280;16902;50.816;12.828;2023-04-24T10:13:47;96652.59;;;14.90;100.00
30081;BME280;16902;50.816;12.828;2023-04-24T10:18:49;96656.94;;;14.85;100.00
30081;BME280;16902;50.816;12.828;2023-04-24T10:23:51;96655.13;;;14.10;100.00
30081;BME280;16902;50.816;12.828;2023-04-24T10:28:54;96668.78;;;14.12;100.00
30081;BME280;16902;50.816;12.828;2023-04-24T10:33:55;96669.13;;;14.79;100.00
30081;BME280;16902;50.816;12.828;2023-04-24T10:39:00;96671.66;;;15.03;100.00
30081;BME280;16902;50.816;12.828;2023-04-24T10:44:11;96678.56;;;14.52;100.00
30081;BME280;16902;50.816;12.828;2023-04-24T10:49:13;96675.16;;;14.04;100.00
30081;BME280;16902;50.816;12.828;2023-04-24T10:54:27;96671.97;;;13.91;100.00
30081;BME280;16902;50.816;12.828;2023-04-24T10:59:34;96670.94;;;13.80;100.00
30081;BME280;16902;50.816;12.828;2023-04-24T11:04:36;96675.94;;;15.21;100.00
30081;BME280;16902;50.816;12.828;2023-04-24T11:09:38;96679.06;;;15.34;100.00
30081;BME280;16902;50.816;12.828;2023-04-24T11:20:05;96687.88;;;15.00;100.00
30081;BME280;16902;50.816;12.828;2023-04-24T11:25:30;96708.25;;;14.46;100.00
30081;BME280;16902;50.816;12.828;2023-04-24T11:30:33;96716.44;;;14.73;100.00
30081;BME280;16902;50.816;12.828;2023-04-24T11:35:41;96719.09;;;15.75;100.00
30081;BME280;16902;50.816;12.828;2023-04-24T11:40:43;96711.66;;;17.54;100.00
30081;BME280;16902;50.816;12.828;2023-04-24T11:45:48;96724.59;;;15.90;100.00
30081;BME280;16902;50.816;12.828;2023-04-24T11:50:50;96720.50;;;17.16;100.00
30081;BME280;16902;50.816;12.828;2023-04-24T11:55:52;96735.31;;;16.23;100.00
30081;BME280;16902;50.816;12.828;2023-04-24T12:00:57;96724.78;;;15.55;100.00
30081;BME280;16902;50.816;12.828;2023-04-24T12:06:09;96717.25;;;14.38;100.00
30081;BME280;16902;50.816;12.828;2023-04-24T12:11:15;96728.28;;;14.75;100.00
30081;BME280;16902;50.816;12.828;2023-04-24T12:16:17;96726.00;;;14.67;100.00
30081;BME280;16902;50.816;12.828;2023-04-24T12:21:22;96724.88;;;15.32;100.00
30081;BME280;16902;50.816;12.828;2023-04-24T12:26:27;96711.50;;;16.29;100.00
30081;BME280;16902;50.816;12.828;2023-04-24T12:31:28;96719.56;;;16.78;100.00
30081;BME280;16902;50.816;12.828;2023-04-24T12:36:31;96723.41;;;14.32;100.00
30081;BME280;16902;50.816;12.828;2023-04-24T12:41:33;96718.50;;;14.24;100.00
30081;BME280;16902;50.816;12.828;2023-04-24T12:46:35;96708.22;;;15.38;100.00
30081;BME280;16902;50.816;12.828;2023-04-24T12:51:38;96700.75;;;17.40;100.00
30081;BME280;16902;50.816;12.828;2023-04-24T12:56:40;96703.44;;;17.18;100.00
30081;BME280;16902;50.816;12.828;2023-04-24T13:01:42;96728.72;;;15.41;100.00
30081;BME280;16902;50.816;12.828;2023-04-24T13:06:44;96716.97;;;14.86;100.00
30081;BME280;16902;50.816;12.828;2023-04-24T13:11:45;96718.41;;;14.65;100.00
30081;BME280;16902;50.816;12.828;2023-04-24T13:16:47;96711.06;;;15.08;100.00
30081;BME280;16902;50.816;12.828;2023-04-24T13:21:49;96694.16;;;17.97;100.00
30081;BME280;16902;50.816;12.828;2023-04-24T13:26:54;96702.72;;;17.01;100.00
30081;BME280;16902;50.816;12.828;2023-04-24T13:31:57;96705.88;;;14.96;100.00
30081;BME280;16902;50.816;12.828;2023-04-24T13:36:59;96703.63;;;14.88;100.00
30081;BME280;16902;50.816;12.828;2023-04-24T13:42:01;96696.56;;;16.30;100.00
30081;BME280;16902;50.816;12.828;2023-04-24T13:47:05;96705.78;;;19.01;100.00
30081;BME280;16902;50.816;12.828;2023-04-24T13:52:07;96699.31;;;17.82;100.00
30081;BME280;16902;50.816;12.828;2023-04-24T13:57:09;96701.19;;;14.98;100.00
30081;BME280;16902;50.816;12.828;2023-04-24T14:02:10;96699.84;;;15.70;100.00
30081;BME280;16902;50.816;12.828;2023-04-24T14:07:12;96703.91;;;15.32;100.00
30081;BME280;16902;50.816;12.828;2023-04-24T14:12:14;96696.03;;;15.15;100.00
30081;BME280;16902;50.816;12.828;2023-04-24T14:17:17;96697.81;;;15.43;100.00
30081;BME280;16902;50.816;12.828;2023-04-24T14:22:19;96694.88;;;15.11;100.00
30081;BME280;16902;50.816;12.828;2023-04-24T14:27:21;96701.41;;;14.68;100.00
30081;BME280;16902;50.816;12.828;2023-04-24T14:32:23;96684.13;;;14.32;100.00
30081;BME280;16902;50.816;12.828;2023-04-24T14:37:25;96688.72;;;13.36;100.00
30081;BME280;16902;50.816;12.828;2023-04-24T14:42:26;96700.63;;;12.83;100.00
30081;BME280;16902;50.816;12.828;2023-04-24T14:47:30;96689.44;;;12.95;100.00
30081;BME280;16902;50.816;12.828;2023-04-24T14:52:31;96703.16;;;13.38;100.00
30081;BME280;16902;50.816;12.828;2023-04-24T14:57:34;96702.69;;;14.07;100.00
30081;BME280;16902;50.816;12.828;2023-04-24T15:02:36;96695.94;;;13.87;100.00
30081;BME280;16902;50.816;12.828;2023-04-24T15:07:41;96713.41;;;14.52;100.00
30081;BME280;16902;50.816;12.828;2023-04-24T15:12:43;96714.16;;;14.64;100.00
30081;BME280;16902;50.816;12.828;2023-04-24T15:17:45;96719.09;;;14.02;100.00
30081;BME280;16902;50.816;12.828;2023-04-24T15:22:47;96722.22;;;13.81;100.00
30081;BME280;16902;50.816;12.828;2023-04-24T15:27:48;96721.13;;;13.47;100.00
30081;BME280;16902;50.816;12.828;2023-04-24T15:32:50;96722.44;;;13.26;100.00
30081;BME280;16902;50.816;12.828;2023-04-24T15:37:52;96738.88;;;12.96;100.00
30081;BME280;16902;50.816;12.828;2023-04-24T15:42:54;96753.81;;;12.52;100.00
30081;BME280;16902;50.816;12.828;2023-04-24T15:47:56;96760.53;;;12.23;100.00
30081;BME280;16902;50.816;12.828;2023-04-24T15:52:57;96776.63;;;11.89;100.00
30081;BME280;16902;50.816;12.828;2023-04-24T15:57:59;96790.69;;;11.88;100.00
30081;BME280;16902;50.816;12.828;2023-04-24T16:03:02;96781.41;;;12.23;100.00
30081;BME280;16902;50.816;12.828;2023-04-24T16:08:04;96789.38;;;12.90;100.00
30081;BME280;16902;50.816;12.828;2023-04-24T16:13:06;96784.00;;;13.22;100.00
30081;BME280;16902;50.816;12.828;2023-04-24T16:18:07;96806.03;;;12.71;100.00
30081;BME280;16902;50.816;12.828;2023-04-24T16:23:09;96806.63;;;12.04;100.00
30081;BME280;16902;50.816;12.828;2023-04-24T16:28:11;96802.00;;;11.75;100.00
30081;BME280;16902;50.816;12.828;2023-04-24T16:33:13;96820.56;;;11.02;100.00
30081;BME280;16902;50.816;12.828;2023-04-24T16:38:15;96822.44;;;9.82;100.00
30081;BME280;16902;50.816;12.828;2023-04-24T16:43:17;96814.41;;;9.70;100.00
30081;BME280;16902;50.816;12.828;2023-04-24T16:48:19;96812.44;;;9.92;100.00
30081;BME280;16902;50.816;12.828;2023-04-24T16:53:20;96818.84;;;10.23;100.00
30081;BME280;16902;50.816;12.828;2023-04-24T16:58:22;96822.66;;;10.14;100.00
30081;BME280;16902;50.816;12.828;2023-04-24T17:03:24;96822.66;;;10.14;100.00
30081;BME280;16902;50.816;12.828;2023-04-24T17:08:26;96822.66;;;10.14;100.00
30081;BME280;16902;50.816;12.828;2023-04-24T17:13:28;96828.84;;;10.19;100.00
30081;BME280;16902;50.816;12.828;2023-04-24T17:18:30;96831.84;;;10.23;100.00
30081;BME280;16902;50.816;12.828;2023-04-24T17:23:31;96827.28;;;10.25;100.00
30081;BME280;16902;50.816;12.828;2023-04-24T17:28:33;96826.50;;;10.31;100.00
30081;BME280;16902;50.816;12.828;2023-04-24T17:34:05;96830.28;;;10.28;100.00
30081;BME280;16902;50.816;12.828;2023-04-24T17:39:18;96841.31;;;10.31;100.00
30081;BME280;16902;50.816;12.828;2023-04-24T17:44:20;96844.50;;;10.26;100.00
30081;BME280;16902;50.816;12.828;2023-04-24T17:49:22;96843.47;;;10.20;100.00
30081;BME280;16902;50.816;12.828;2023-04-24T17:54:26;96846.47;;;10.17;100.00
30081;BME280;16902;50.816;12.828;2023-04-24T17:59:28;96861.06;;;9.98;100.00
30081;BME280;16902;50.816;12.828;2023-04-24T18:04:29;96870.41;;;9.86;100.00
30081;BME280;16902;50.816;12.828;2023-04-24T18:09:31;96877.41;;;9.79;100.00
30081;BME280;16902;50.816;12.828;2023-04-24T18:14:33;96888.97;;;9.70;100.00
30081;BME280;16902;50.816;12.828;2023-04-24T18:19:35;96891.34;;;9.58;100.00
30081;BME280;16902;50.816;12.828;2023-04-24T18:24:36;96906.09;;;9.10;100.00
30081;BME280;16902;50.816;12.828;2023-04-24T18:29:39;96916.25;;;8.48;100.00
30081;BME280;16902;50.816;12.828;2023-04-24T18:34:40;96917.34;;;8.18;100.00
30081;BME280;16902;50.816;12.828;2023-04-24T18:39:42;96921.91;;;8.16;100.00
30081;BME280;16902;50.816;12.828;2023-04-24T18:44:44;96927.53;;;8.41;100.00
30081;BME280;16902;50.816;12.828;2023-04-24T18:49:46;96933.66;;;8.55;100.00
30081;BME280;16902;50.816;12.828;2023-04-24T18:54:48;96926.59;;;8.70;100.00
30081;BME280;16902;50.816;12.828;2023-04-24T18:59:50;96943.63;;;8.79;100.00
30081;BME280;16902;50.816;12.828;2023-04-24T19:04:51;96956.66;;;8.86;100.00
30081;BME280;16902;50.816;12.828;2023-04-24T19:09:53;96957.56;;;8.99;100.00
30081;BME280;16902;50.816;12.828;2023-04-24T19:14:55;96960.56;;;9.03;100.00
30081;BME280;16902;50.816;12.828;2023-04-24T19:19:58;96968.56;;;9.01;100.00
30081;BME280;16902;50.816;12.828;2023-04-24T19:25:00;96973.47;;;8.90;100.00
30081;BME280;16902;50.816;12.828;2023-04-24T19:30:02;96974.34;;;8.54;100.00
30081;BME280;16902;50.816;12.828;2023-04-24T19:35:04;96971.81;;;8.39;100.00
30081;BME280;16902;50.816;12.828;2023-04-24T19:40:06;96973.16;;;8.35;100.00
30081;BME280;16902;50.816;12.828;2023-04-24T19:45:10;96979.22;;;8.64;100.00
30081;BME280;16902;50.816;12.828;2023-04-24T19:50:12;96972.16;;;8.79;100.00
30081;BME280;16902;50.816;12.828;2023-04-24T19:55:15;96983.78;;;8.83;100.00
30081;BME280;16902;50.816;12.828;2023-04-24T20:00:17;96976.44;;;8.87;100.00
30081;BME280;16902;50.816;12.828;2023-04-24T20:05:19;96978.59;;;8.83;100.00
30081;BME280;16902;50.816;12.828;2023-04-24T20:10:21;96980.59;;;8.81;100.00
30081;BME280;16902;50.816;12.828;2023-04-24T20:15:22;96987.13;;;8.77;100.00
30081;BME280;16902;50.816;12.828;2023-04-24T20:20:24;96990.97;;;8.60;100.00
30081;BME280;16902;50.816;12.828;2023-04-24T20:25:26;96988.88;;;8.48;100.00
30081;BME280;16902;50.816;12.828;2023-04-24T20:30:28;96990.97;;;8.38;100.00
30081;BME280;16902;50.816;12.828;2023-04-24T20:35:50;96991.69;;;8.32;100.00
30081;BME280;16902;50.816;12.828;2023-04-24T20:41:37;96996.25;;;8.30;100.00
30081;BME280;16902;50.816;12.828;2023-04-24T20:47:10;96994.09;;;8.34;100.00
30081;BME280;16902;50.816;12.828;2023-04-24T20:52:16;96993.03;;;8.28;100.00
30081;BME280;16902;50.816;12.828;2023-04-24T20:57:18;96994.63;;;8.29;100.00
30081;BME280;16902;50.816;12.828;2023-04-24T21:02:29;96990.25;;;8.30;100.00
30081;BME280;16902;50.816;12.828;2023-04-24T21:08:03;96989.19;;;8.24;100.00
30081;BME280;16902;50.816;12.828;2023-04-24T21:13:06;96989.50;;;8.14;100.00
30081;BME280;16902;50.816;12.828;2023-04-24T21:24:46;96983.09;;;7.95;100.00
30081;BME280;16902;50.816;12.828;2023-04-24T21:30:11;96982.03;;;7.90;100.00
30081;BME280;16902;50.816;12.828;2023-04-24T21:35:23;96979.38;;;7.83;100.00
30081;BME280;16902;50.816;12.828;2023-04-24T21:40:25;96974.56;;;7.80;100.00
30081;BME280;16902;50.816;12.828;2023-04-24T21:45:27;96974.84;;;7.70;100.00
30081;BME280;16902;50.816;12.828;2023-04-24T21:50:31;96971.72;;;7.60;100.00
30081;BME280;16902;50.816;12.828;2023-04-24T21:55:32;96968.75;;;7.48;100.00
30081;BME280;16902;50.816;12.828;2023-04-24T22:00:34;96972.53;;;7.46;100.00
30081;BME280;16902;50.816;12.828;2023-04-24T22:05:37;96967.88;;;7.41;100.00
30081;BME280;16902;50.816;12.828;2023-04-24T22:10:38;96960.00;;;7.35;100.00
30081;BME280;16902;50.816;12.828;2023-04-24T22:15:40;96972.53;;;7.31;100.00
30081;BME280;16902;50.816;12.828;2023-04-24T22:20:42;96970.47;;;7.27;100.00
30081;BME280;16902;50.816;12.828;2023-04-24T22:25:45;96969.84;;;7.25;100.00
30081;BME280;16902;50.816;12.828;2023-04-24T22:30:46;96971.00;;;7.22;100.00
30081;BME280;16902;50.816;12.828;2023-04-24T22:35:48;96971.00;;;7.22;100.00
30081;BME280;16902;50.816;12.828;2023-04-24T22:40:50;96969.56;;;7.19;100.00
30081;BME280;16902;50.816;12.828;2023-04-24T22:45:51;96970.63;;;7.10;100.00
30081;BME280;16902;50.816;12.828;2023-04-24T22:50:53;96969.28;;;7.00;100.00
30081;BME280;16902;50.816;12.828;2023-04-24T22:55:55;96969.31;;;6.77;100.00
30081;BME280;16902;50.816;12.828;2023-04-24T23:00:57;96976.09;;;6.63;100.00
30081;BME280;16902;50.816;12.828;2023-04-24T23:05:59;96972.28;;;6.51;100.00
30081;BME280;16902;50.816;12.828;2023-04-24T23:11:01;96979.19;;;6.35;100.00
30081;BME280;16902;50.816;12.828;2023-04-24T23:16:03;96963.63;;;6.21;100.00
30081;BME280;16902;50.816;12.828;2023-04-24T23:21:05;96965.66;;;6.02;100.00
30081;BME280;16902;50.816;12.828;2023-04-24T23:26:07;96964.97;;;5.77;100.00
30081;BME280;16902;50.816;12.828;2023-04-24T23:31:09;96961.97;;;5.57;100.00
30081;BME280;16902;50.816;12.828;2023-04-24T23:36:10;96956.13;;;5.24;100.00
30081;BME280;16902;50.816;12.828;2023-04-24T23:41:13;96960.06;;;4.87;100.00
30081;BME280;16902;50.816;12.828;2023-04-24T23:46:15;96961.38;;;4.59;100.00
30081;BME280;16902;50.816;12.828;2023-04-24T23:51:17;96955.72;;;4.39;100.00
30081;BME280;16902;50.816;12.828;2023-04-24T23:56:19;96953.78;;;4.25;100.00
